createdAt,value
2023-01-18T00:03:39.547Z,8.83
2023-01-18T00:06:41.415Z,7.13
2023-01-18T00:09:43.065Z,9.53
2023-01-18T00:12:45.240Z,12.53
2023-01-18T00:15:46.927Z,7.87
2023-01-18T00:18:57.136Z,8.37
2023-01-18T00:21:58.918Z,7.00
2023-01-18T00:25:00.645Z,7.30
2023-01-18T00:28:02.378Z,6.17
2023-01-18T00:31:18.830Z,6.30
2023-01-18T00:34:20.537Z,6.50
2023-01-18T00:37:24.797Z,5.67
2023-01-18T00:40:28.807Z,8.03
2023-01-18T00:43:39.433Z,5.70
2023-01-18T00:46:41.146Z,6.07
2023-01-18T00:49:43.074Z,5.47
2023-01-18T00:52:46.447Z,5.73
2023-01-18T00:55:49.068Z,5.07
2023-01-18T00:58:50.880Z,5.10
2023-01-18T01:01:52.695Z,5.73
2023-01-18T01:05:13.364Z,5.93
2023-01-18T01:08:19.801Z,5.63
2023-01-18T01:11:21.460Z,5.80
2023-01-18T01:14:41.848Z,5.33
2023-01-18T01:18:02.304Z,6.43
2023-01-18T01:24:53.364Z,5.90
2023-01-18T01:27:55.037Z,6.93
2023-01-18T01:30:58.242Z,6.17
2023-01-18T01:41:25.374Z,6.23
2023-01-18T01:44:34.045Z,6.47
2023-01-18T01:47:45.849Z,6.47
2023-01-18T01:50:47.662Z,6.07
2023-01-18T01:53:50.884Z,5.90
2023-01-18T01:56:59.155Z,6.47
2023-01-18T02:00:24.089Z,6.00
2023-01-18T02:03:25.906Z,6.60
2023-01-18T02:06:33.623Z,6.03
2023-01-18T02:13:12.582Z,5.20
2023-01-18T02:16:26.589Z,4.90
2023-01-18T02:20:26.693Z,5.17
2023-01-18T02:23:35.239Z,5.43
2023-01-18T02:26:51.561Z,4.90
2023-01-18T02:30:16.962Z,4.50
2023-01-18T02:47:16.631Z,6.60
2023-01-18T02:50:28.145Z,6.77
2023-01-18T02:53:31.510Z,5.53
2023-01-18T02:56:49.507Z,5.50
2023-01-18T02:59:54.808Z,4.90
2023-01-18T03:07:40.037Z,5.30
2023-01-18T03:25:16.613Z,4.40
2023-01-18T03:28:42.644Z,6.07
2023-01-18T03:32:07.752Z,5.10
2023-01-18T03:35:15.496Z,5.93
2023-01-18T03:42:18.534Z,4.20
2023-01-18T03:45:34.120Z,4.93
2023-01-18T03:48:36.967Z,6.17
2023-01-18T03:55:17.033Z,5.40
2023-01-18T03:58:29.842Z,5.80
2023-01-18T04:01:32.156Z,5.60
2023-01-18T04:04:34.083Z,6.30
2023-01-18T04:10:59.553Z,5.90
2023-01-18T04:21:02.134Z,5.60
2023-01-18T05:09:34.111Z,5.40
2023-01-18T05:12:35.833Z,4.67
2023-01-18T05:15:37.685Z,6.27
2023-01-18T06:02:07.806Z,6.80
2023-01-18T06:05:09.757Z,8.60
2023-01-18T06:08:12.571Z,7.67
2023-01-18T06:11:14.296Z,6.20
2023-01-18T06:14:16.096Z,6.23
2023-01-18T07:27:37.874Z,6.87
2023-01-18T07:30:39.550Z,5.93
2023-01-18T07:33:41.694Z,5.57
2023-01-18T07:36:44.259Z,5.73
2023-01-18T08:25:22.030Z,8.20
2023-01-18T08:28:23.888Z,8.03
2023-01-18T08:31:25.678Z,8.37
2023-01-18T08:34:27.419Z,7.57
2023-01-18T08:37:29.235Z,8.87
2023-01-18T09:27:30.107Z,9.53
2023-01-18T09:30:32.344Z,7.50
2023-01-18T09:33:37.958Z,9.57
2023-01-18T09:36:40.506Z,8.87
2023-01-18T10:12:42.650Z,9.70
2023-01-18T10:16:16.299Z,10.37
2023-01-18T10:20:16.323Z,9.43
2023-01-18T10:23:49.400Z,9.37
2023-01-18T10:26:57.129Z,8.70
2023-01-18T10:30:11.065Z,9.43
2023-01-18T10:33:21.335Z,9.30
2023-01-18T10:36:34.108Z,10.27
2023-01-18T11:17:32.469Z,10.17
2023-01-18T11:20:58.472Z,11.40
2023-01-18T11:24:07.709Z,11.33
2023-01-18T11:27:17.008Z,10.87
2023-01-18T11:30:28.181Z,11.17
2023-01-18T11:33:31.351Z,11.40
2023-01-18T11:37:08.500Z,11.43
2023-01-18T11:40:37.002Z,11.57
2023-01-18T11:43:52.979Z,10.03
2023-01-18T11:46:59.250Z,10.27
2023-01-18T11:50:24.488Z,10.47
2023-01-18T11:53:47.736Z,9.87
2023-01-18T12:11:50.367Z,8.23
2023-01-18T12:15:05.681Z,8.77
2023-01-18T12:18:29.570Z,8.73
2023-01-18T12:22:21.207Z,8.87
2023-01-18T12:25:52.070Z,10.63
2023-01-18T12:29:29.610Z,7.57
2023-01-18T12:32:45.753Z,12.50
2023-01-18T12:35:53.655Z,8.17
2023-01-18T12:38:57.057Z,9.13
2023-01-18T12:42:13.265Z,7.70
2023-01-18T12:45:28.371Z,6.40
2023-01-18T12:48:41.625Z,6.97
2023-01-18T12:51:53.443Z,6.43
2023-01-18T12:55:01.140Z,6.17
2023-01-18T12:58:03.500Z,5.27
2023-01-18T13:01:10.825Z,6.57
2023-01-18T13:04:30.225Z,5.70
2023-01-18T13:07:40.417Z,5.30
2023-01-18T13:10:49.378Z,5.40
2023-01-18T13:14:37.296Z,5.20
2023-01-18T13:18:06.597Z,6.27
2023-01-18T13:21:43.317Z,5.43
2023-01-18T13:25:17.721Z,5.80
2023-01-18T13:28:25.222Z,5.80
2023-01-18T13:31:33.575Z,5.40
2023-01-18T13:34:48.089Z,4.70
2023-01-18T13:37:56.673Z,5.83
2023-01-18T13:41:04.403Z,6.23
2023-01-18T13:44:38.179Z,5.70
2023-01-18T13:47:42.932Z,5.07
2023-01-18T13:50:47.224Z,6.10
2023-01-18T13:53:50.705Z,5.67
2023-01-18T13:57:01.838Z,9.90
2023-01-18T14:00:21.834Z,21.13
2023-01-18T14:03:49.584Z,9.43
2023-01-18T14:06:53.266Z,5.37
2023-01-18T14:10:03.530Z,6.97
2023-01-18T14:13:13.921Z,5.70
2023-01-18T14:16:23.535Z,5.77
2023-01-18T14:19:29.310Z,5.20
2023-01-18T14:23:05.835Z,5.50
2023-01-18T14:26:12.235Z,5.93
2023-01-18T14:29:48.068Z,4.60
2023-01-18T14:33:16.292Z,5.27
2023-01-18T14:36:23.935Z,5.77
2023-01-18T14:39:28.367Z,5.43
2023-01-18T14:42:34.786Z,5.57
2023-01-18T14:45:39.236Z,5.17
2023-01-18T14:48:53.882Z,6.00
2023-01-18T14:51:56.968Z,5.20
2023-01-18T14:55:05.797Z,5.60
2023-01-18T14:58:17.883Z,4.63
2023-01-18T15:01:25.868Z,3.90
2023-01-18T15:04:33.096Z,4.80
2023-01-18T15:07:38.857Z,4.17
2023-01-18T15:10:43.334Z,5.40
2023-01-18T15:14:05.388Z,4.60
2023-01-18T15:17:21.519Z,4.40
2023-01-18T15:20:24.019Z,4.20
2023-01-18T15:23:27.628Z,3.17
2023-01-18T15:26:55.367Z,3.40
2023-01-18T15:30:01.599Z,3.90
2023-01-18T15:33:04.437Z,3.13
2023-01-18T15:36:10.088Z,3.53
2023-01-18T15:39:15.492Z,3.30
2023-01-18T15:42:20.669Z,3.50
2023-01-18T15:45:43.922Z,2.60
2023-01-18T15:49:13.153Z,2.63
2023-01-18T15:52:18.694Z,2.47
2023-01-18T15:55:32.112Z,2.77
2023-01-18T15:58:45.285Z,3.13
2023-01-18T16:02:19.194Z,3.30
2023-01-18T16:05:24.021Z,3.97
2023-01-18T16:08:27.055Z,4.40
2023-01-18T16:11:45.873Z,3.33
2023-01-18T16:14:53.375Z,3.67
2023-01-18T16:18:09.827Z,3.50
2023-01-18T16:21:21.403Z,4.37
2023-01-18T16:24:59.787Z,4.30
2023-01-18T16:28:03.587Z,3.27
2023-01-18T16:31:05.729Z,3.20
2023-01-18T16:34:27.519Z,3.20
2023-01-18T16:37:30.775Z,3.73
2023-01-18T16:40:38.522Z,4.23
2023-01-18T16:43:44.400Z,3.77
2023-01-18T16:46:48.124Z,3.77
2023-01-18T16:49:51.814Z,4.03
2023-01-18T16:52:57.079Z,2.93
2023-01-18T16:55:59.843Z,3.70
2023-01-18T16:59:18.903Z,4.77
2023-01-18T17:02:21.287Z,5.23
2023-01-18T17:05:23.181Z,4.93
2023-01-18T17:08:24.911Z,5.47
2023-01-18T17:11:26.694Z,3.87
2023-01-18T17:14:28.679Z,3.50
2023-01-18T17:17:30.395Z,4.27
2023-01-18T17:20:32.198Z,4.50
2023-01-18T17:23:33.898Z,3.97
2023-01-18T17:26:36.708Z,4.20
2023-01-18T17:29:38.435Z,4.53
2023-01-18T17:32:40.224Z,4.83
2023-01-18T17:35:41.939Z,3.53
2023-01-18T17:38:43.671Z,4.47
2023-01-18T17:41:46.550Z,4.63
2023-01-18T17:44:48.352Z,3.67
2023-01-18T17:47:53.561Z,3.80
2023-01-18T17:50:55.334Z,4.27
2023-01-18T17:53:59.305Z,3.87
2023-01-18T17:57:01.741Z,4.27
2023-01-18T18:00:04.559Z,4.47
2023-01-18T18:03:09.899Z,3.57
2023-01-18T18:06:14.400Z,4.37
2023-01-18T18:09:16.258Z,4.67
2023-01-18T18:12:18.019Z,4.13
2023-01-18T18:15:22.164Z,4.23
2023-01-18T18:18:24.625Z,3.80
2023-01-18T18:21:27.128Z,3.60
2023-01-18T18:24:28.852Z,3.20
2023-01-18T18:27:44.482Z,3.77
2023-01-18T18:30:51.356Z,3.33
2023-01-18T18:33:53.276Z,4.00
2023-01-18T18:36:54.977Z,3.17
2023-01-18T18:39:56.664Z,3.13
2023-01-18T18:43:03.055Z,3.00
2023-01-18T18:46:05.112Z,3.47
2023-01-18T18:49:06.932Z,3.37
2023-01-18T18:52:08.658Z,3.00
2023-01-18T18:55:11.237Z,3.67
2023-01-18T18:58:13.055Z,3.37
2023-01-18T19:01:23.621Z,2.93
2023-01-18T19:04:26.502Z,3.83
2023-01-18T19:07:28.666Z,3.13
2023-01-18T19:10:30.524Z,3.07
2023-01-18T19:13:32.259Z,3.70
2023-01-18T19:16:34.061Z,3.83
2023-01-18T19:19:35.819Z,3.60
2023-01-18T19:22:38.244Z,3.80
2023-01-18T19:25:40.642Z,2.40
2023-01-18T19:28:42.447Z,2.90
2023-01-18T19:31:44.208Z,2.87
2023-01-18T19:34:45.946Z,3.53
2023-01-18T19:37:48.759Z,2.90
2023-01-18T19:40:50.807Z,3.37
2023-01-18T19:43:52.503Z,3.57
2023-01-18T19:46:56.643Z,3.07
2023-01-18T19:50:02.796Z,3.27
2023-01-18T19:53:04.614Z,2.70
2023-01-18T19:56:07.792Z,2.73
2023-01-18T19:59:11.307Z,3.63
2023-01-18T20:02:13.178Z,3.73
2023-01-18T20:05:14.975Z,3.47
2023-01-18T20:08:16.669Z,3.60
2023-01-18T20:11:18.824Z,3.63
2023-01-18T20:14:20.579Z,3.13
2023-01-18T20:17:22.975Z,3.33
2023-01-18T20:20:32.435Z,2.90
2023-01-18T20:23:34.888Z,2.90
2023-01-18T20:26:39.543Z,4.13
2023-01-18T20:29:42.569Z,4.00
2023-01-18T20:32:44.409Z,4.07
2023-01-18T20:35:46.692Z,3.47
2023-01-18T20:38:48.414Z,3.47
2023-01-18T20:41:50.235Z,4.00
2023-01-18T20:44:53.857Z,3.63
2023-01-18T21:17:10.206Z,4.43
2023-01-18T21:48:11.520Z,4.73
2023-01-18T21:52:03.486Z,4.30
2023-01-18T21:55:27.999Z,4.37
2023-01-18T22:02:36.143Z,4.00
2023-01-18T22:05:40.805Z,4.73
2023-01-18T22:22:39.023Z,4.67
2023-01-18T22:25:41.160Z,4.27
2023-01-18T22:28:42.916Z,4.77
2023-01-18T22:31:44.655Z,4.20
2023-01-18T22:34:46.375Z,5.07
2023-01-18T22:37:48.266Z,4.57
2023-01-18T22:40:49.991Z,5.27
2023-01-18T22:43:52.022Z,5.47
2023-01-18T22:46:53.727Z,5.40
2023-01-18T22:49:55.599Z,5.57
2023-01-18T23:00:08.787Z,4.90
2023-01-18T23:06:50.627Z,5.13
2023-01-18T23:09:52.400Z,5.20
2023-01-18T23:12:54.203Z,5.53
2023-01-18T23:16:14.326Z,5.20
2023-01-18T23:19:16.381Z,4.43
2023-01-18T23:22:18.292Z,5.37
2023-01-18T23:25:19.951Z,4.30
2023-01-18T23:28:27.431Z,4.60
2023-01-18T23:31:29.220Z,5.27
2023-01-18T23:34:30.907Z,6.20
2023-01-18T23:37:33.107Z,5.03
2023-01-18T23:40:54.686Z,6.47
2023-01-18T23:44:15.175Z,6.10
2023-01-18T23:47:35.607Z,6.03
2023-01-18T23:50:56.008Z,4.90
2023-01-18T23:54:12.701Z,6.40
